sensor_id;sensor_type;location;lat;lon;timestamp;temperature;humidity
28520;DHT22;15732;48.534;20.382;2023-05-10T00:00:26;10.30;99.90
28520;DHT22;15732;48.534;20.382;2023-05-10T00:02:53;10.30;99.90
28520;DHT22;15732;48.534;20.382;2023-05-10T00:05:21;10.30;99.90
28520;DHT22;15732;48.534;20.382;2023-05-10T00:07:48;10.30;99.90
28520;DHT22;15732;48.534;20.382;2023-05-10T00:10:15;10.20;99.90
28520;DHT22;15732;48.534;20.382;2023-05-10T00:12:42;10.20;99.90
28520;DHT22;15732;48.534;20.382;2023-05-10T00:15:10;10.10;99.90
28520;DHT22;15732;48.534;20.382;2023-05-10T00:17:37;10.10;99.90
28520;DHT22;15732;48.534;20.382;2023-05-10T00:20:05;10.00;99.90
28520;DHT22;15732;48.534;20.382;2023-05-10T00:22:33;9.90;99.90
28520;DHT22;15732;48.534;20.382;2023-05-10T00:25:01;9.90;99.90
28520;DHT22;15732;48.534;20.382;2023-05-10T00:27:28;9.90;99.90
28520;DHT22;15732;48.534;20.382;2023-05-10T00:29:55;10.00;99.90
28520;DHT22;15732;48.534;20.382;2023-05-10T00:32:22;10.10;99.90
28520;DHT22;15732;48.534;20.382;2023-05-10T00:34:50;10.20;99.90
28520;DHT22;15732;48.534;20.382;2023-05-10T00:37:17;10.30;99.90
28520;DHT22;15732;48.534;20.382;2023-05-10T00:39:44;10.30;99.90
28520;DHT22;15732;48.534;20.382;2023-05-10T00:42:12;10.40;99.90
28520;DHT22;15732;48.534;20.382;2023-05-10T00:44:39;10.40;99.90
28520;DHT22;15732;48.534;20.382;2023-05-10T00:47:07;10.40;99.90
28520;DHT22;15732;48.534;20.382;2023-05-10T00:49:35;10.40;99.90
28520;DHT22;15732;48.534;20.382;2023-05-10T00:52:02;10.40;99.90
28520;DHT22;15732;48.534;20.382;2023-05-10T00:54:30;10.30;99.90
28520;DHT22;15732;48.534;20.382;2023-05-10T00:56:57;10.30;99.90
28520;DHT22;15732;48.534;20.382;2023-05-10T00:59:25;10.20;99.90
28520;DHT22;15732;48.534;20.382;2023-05-10T01:01:52;10.20;99.90
28520;DHT22;15732;48.534;20.382;2023-05-10T01:04:19;10.20;99.90
28520;DHT22;15732;48.534;20.382;2023-05-10T01:06:52;10.20;99.90
28520;DHT22;15732;48.534;20.382;2023-05-10T01:09:24;10.30;99.90
28520;DHT22;15732;48.534;20.382;2023-05-10T01:11:53;10.40;99.90
28520;DHT22;15732;48.534;20.382;2023-05-10T01:14:20;10.30;99.90
28520;DHT22;15732;48.534;20.382;2023-05-10T01:16:49;10.10;99.90
28520;DHT22;15732;48.534;20.382;2023-05-10T01:19:29;9.90;99.90
28520;DHT22;15732;48.534;20.382;2023-05-10T01:28:04;9.70;99.90
28520;DHT22;15732;48.534;20.382;2023-05-10T01:33:46;9.60;99.90
28520;DHT22;15732;48.534;20.382;2023-05-10T01:36:44;9.70;99.90
28520;DHT22;15732;48.534;20.382;2023-05-10T01:39:22;9.80;99.90
28520;DHT22;15732;48.534;20.382;2023-05-10T01:41:56;9.70;99.90
28520;DHT22;15732;48.534;20.382;2023-05-10T01:44:31;9.80;99.90
28520;DHT22;15732;48.534;20.382;2023-05-10T01:47:17;9.80;99.90
28520;DHT22;15732;48.534;20.382;2023-05-10T01:49:50;9.90;99.90
28520;DHT22;15732;48.534;20.382;2023-05-10T01:52:26;10.00;99.90
28520;DHT22;15732;48.534;20.382;2023-05-10T01:55:06;10.10;99.90
28520;DHT22;15732;48.534;20.382;2023-05-10T01:57:36;10.10;99.90
28520;DHT22;15732;48.534;20.382;2023-05-10T02:00:06;10.20;99.90
28520;DHT22;15732;48.534;20.382;2023-05-10T02:02:37;10.20;99.90
28520;DHT22;15732;48.534;20.382;2023-05-10T02:05:07;10.20;99.90
28520;DHT22;15732;48.534;20.382;2023-05-10T02:07:36;10.30;99.90
28520;DHT22;15732;48.534;20.382;2023-05-10T02:10:05;10.30;99.90
28520;DHT22;15732;48.534;20.382;2023-05-10T02:12:39;10.40;99.90
28520;DHT22;15732;48.534;20.382;2023-05-10T02:15:08;10.40;99.90
28520;DHT22;15732;48.534;20.382;2023-05-10T02:17:42;10.40;99.90
28520;DHT22;15732;48.534;20.382;2023-05-10T02:20:11;10.40;99.90
28520;DHT22;15732;48.534;20.382;2023-05-10T02:22:42;10.40;99.90
28520;DHT22;15732;48.534;20.382;2023-05-10T02:25:11;10.40;99.90
28520;DHT22;15732;48.534;20.382;2023-05-10T02:27:44;10.50;99.90
28520;DHT22;15732;48.534;20.382;2023-05-10T02:30:13;10.50;99.90
28520;DHT22;15732;48.534;20.382;2023-05-10T02:32:42;10.40;99.90
28520;DHT22;15732;48.534;20.382;2023-05-10T02:35:10;10.40;99.90
28520;DHT22;15732;48.534;20.382;2023-05-10T02:37:38;10.30;99.90
28520;DHT22;15732;48.534;20.382;2023-05-10T02:40:07;10.30;99.90
28520;DHT22;15732;48.534;20.382;2023-05-10T02:42:36;10.40;99.90
28520;DHT22;15732;48.534;20.382;2023-05-10T02:45:17;10.40;99.90
28520;DHT22;15732;48.534;20.382;2023-05-10T02:47:44;10.40;99.90
28520;DHT22;15732;48.534;20.382;2023-05-10T02:50:15;10.50;99.90
28520;DHT22;15732;48.534;20.382;2023-05-10T02:52:56;10.50;99.90
28520;DHT22;15732;48.534;20.382;2023-05-10T02:55:36;10.50;99.90
28520;DHT22;15732;48.534;20.382;2023-05-10T02:58:04;10.60;99.90
28520;DHT22;15732;48.534;20.382;2023-05-10T03:00:31;10.60;99.90
28520;DHT22;15732;48.534;20.382;2023-05-10T03:02:59;10.60;99.90
28520;DHT22;15732;48.534;20.382;2023-05-10T03:05:27;10.60;99.90
28520;DHT22;15732;48.534;20.382;2023-05-10T03:07:58;10.60;99.90
28520;DHT22;15732;48.534;20.382;2023-05-10T03:10:28;10.60;99.90
28520;DHT22;15732;48.534;20.382;2023-05-10T03:13:23;10.40;99.90
28520;DHT22;15732;48.534;20.382;2023-05-10T03:16:08;10.30;99.90
28520;DHT22;15732;48.534;20.382;2023-05-10T03:21:14;10.10;99.90
28520;DHT22;15732;48.534;20.382;2023-05-10T03:23:50;10.20;99.90
28520;DHT22;15732;48.534;20.382;2023-05-10T03:26:27;10.20;99.90
28520;DHT22;15732;48.534;20.382;2023-05-10T03:28:55;10.10;99.90
28520;DHT22;15732;48.534;20.382;2023-05-10T03:31:22;10.00;99.90
28520;DHT22;15732;48.534;20.382;2023-05-10T03:33:52;10.00;99.90
28520;DHT22;15732;48.534;20.382;2023-05-10T03:36:23;10.00;99.90
28520;DHT22;15732;48.534;20.382;2023-05-10T03:38:51;9.90;99.90
28520;DHT22;15732;48.534;20.382;2023-05-10T03:41:18;10.00;99.90
28520;DHT22;15732;48.534;20.382;2023-05-10T03:43:49;9.90;99.90
28520;DHT22;15732;48.534;20.382;2023-05-10T03:46:16;10.00;99.90
28520;DHT22;15732;48.534;20.382;2023-05-10T03:48:44;9.90;99.90
28520;DHT22;15732;48.534;20.382;2023-05-10T03:51:11;10.00;99.90
28520;DHT22;15732;48.534;20.382;2023-05-10T03:53:39;10.00;99.90
28520;DHT22;15732;48.534;20.382;2023-05-10T03:56:06;10.00;99.90
28520;DHT22;15732;48.534;20.382;2023-05-10T03:58:33;10.00;99.90
28520;DHT22;15732;48.534;20.382;2023-05-10T04:01:01;10.10;99.90
28520;DHT22;15732;48.534;20.382;2023-05-10T04:03:28;10.10;99.90
28520;DHT22;15732;48.534;20.382;2023-05-10T04:06:01;10.20;99.90
28520;DHT22;15732;48.534;20.382;2023-05-10T04:08:29;10.20;99.90
28520;DHT22;15732;48.534;20.382;2023-05-10T04:11:05;10.40;99.90
28520;DHT22;15732;48.534;20.382;2023-05-10T04:13:33;10.50;99.90
28520;DHT22;15732;48.534;20.382;2023-05-10T04:16:00;10.60;99.90
28520;DHT22;15732;48.534;20.382;2023-05-10T04:18:27;10.70;99.90
28520;DHT22;15732;48.534;20.382;2023-05-10T04:20:58;10.70;99.90
28520;DHT22;15732;48.534;20.382;2023-05-10T04:23:29;10.70;99.90
28520;DHT22;15732;48.534;20.382;2023-05-10T04:26:00;10.80;99.90
28520;DHT22;15732;48.534;20.382;2023-05-10T04:28:27;10.90;99.90
28520;DHT22;15732;48.534;20.382;2023-05-10T04:31:09;11.00;99.90
28520;DHT22;15732;48.534;20.382;2023-05-10T04:33:36;11.10;99.90
28520;DHT22;15732;48.534;20.382;2023-05-10T04:36:03;11.20;99.90
28520;DHT22;15732;48.534;20.382;2023-05-10T04:38:30;11.10;99.90
28520;DHT22;15732;48.534;20.382;2023-05-10T04:41:05;11.20;99.90
28520;DHT22;15732;48.534;20.382;2023-05-10T04:43:32;11.30;99.90
28520;DHT22;15732;48.534;20.382;2023-05-10T04:45:59;11.30;99.90
28520;DHT22;15732;48.534;20.382;2023-05-10T04:48:27;11.40;99.90
28520;DHT22;15732;48.534;20.382;2023-05-10T04:50:54;11.50;99.90
28520;DHT22;15732;48.534;20.382;2023-05-10T04:53:22;11.50;99.90
28520;DHT22;15732;48.534;20.382;2023-05-10T04:55:49;11.50;99.90
28520;DHT22;15732;48.534;20.382;2023-05-10T04:58:16;11.50;99.90
28520;DHT22;15732;48.534;20.382;2023-05-10T05:00:43;11.60;99.90
28520;DHT22;15732;48.534;20.382;2023-05-10T05:03:11;11.70;99.90
28520;DHT22;15732;48.534;20.382;2023-05-10T05:05:38;11.70;99.90
28520;DHT22;15732;48.534;20.382;2023-05-10T05:08:05;11.70;99.90
28520;DHT22;15732;48.534;20.382;2023-05-10T05:10:32;11.60;99.90
28520;DHT22;15732;48.534;20.382;2023-05-10T05:13:00;11.70;99.90
28520;DHT22;15732;48.534;20.382;2023-05-10T05:15:27;11.70;99.90
28520;DHT22;15732;48.534;20.382;2023-05-10T05:17:54;11.70;99.90
28520;DHT22;15732;48.534;20.382;2023-05-10T05:20:21;11.70;99.90
28520;DHT22;15732;48.534;20.382;2023-05-10T05:22:48;11.80;99.90
28520;DHT22;15732;48.534;20.382;2023-05-10T05:25:16;11.80;99.90
28520;DHT22;15732;48.534;20.382;2023-05-10T05:27:43;11.90;99.90
28520;DHT22;15732;48.534;20.382;2023-05-10T05:30:11;11.90;99.90
28520;DHT22;15732;48.534;20.382;2023-05-10T05:32:38;12.00;99.90
28520;DHT22;15732;48.534;20.382;2023-05-10T05:35:06;12.10;99.90
28520;DHT22;15732;48.534;20.382;2023-05-10T05:37:33;12.20;99.90
28520;DHT22;15732;48.534;20.382;2023-05-10T05:40:01;12.20;99.90
28520;DHT22;15732;48.534;20.382;2023-05-10T05:42:30;12.40;99.90
28520;DHT22;15732;48.534;20.382;2023-05-10T05:44:57;12.50;99.90
28520;DHT22;15732;48.534;20.382;2023-05-10T05:47:26;12.60;99.90
28520;DHT22;15732;48.534;20.382;2023-05-10T05:49:53;12.80;99.90
28520;DHT22;15732;48.534;20.382;2023-05-10T05:52:22;12.90;99.90
28520;DHT22;15732;48.534;20.382;2023-05-10T05:54:49;13.10;99.90
28520;DHT22;15732;48.534;20.382;2023-05-10T05:57:16;13.20;99.90
28520;DHT22;15732;48.534;20.382;2023-05-10T05:59:44;13.30;99.90
28520;DHT22;15732;48.534;20.382;2023-05-10T06:02:12;13.40;99.90
28520;DHT22;15732;48.534;20.382;2023-05-10T06:04:39;13.50;99.90
28520;DHT22;15732;48.534;20.382;2023-05-10T06:07:06;13.60;99.90
28520;DHT22;15732;48.534;20.382;2023-05-10T06:09:33;13.60;99.90
28520;DHT22;15732;48.534;20.382;2023-05-10T06:12:01;13.70;99.90
28520;DHT22;15732;48.534;20.382;2023-05-10T06:14:28;13.80;99.90
28520;DHT22;15732;48.534;20.382;2023-05-10T06:16:55;13.80;99.90
28520;DHT22;15732;48.534;20.382;2023-05-10T06:19:23;13.90;99.90
28520;DHT22;15732;48.534;20.382;2023-05-10T06:21:52;14.00;99.90
28520;DHT22;15732;48.534;20.382;2023-05-10T06:24:20;14.10;99.90
28520;DHT22;15732;48.534;20.382;2023-05-10T06:26:48;14.10;99.90
28520;DHT22;15732;48.534;20.382;2023-05-10T06:29:16;14.20;99.90
28520;DHT22;15732;48.534;20.382;2023-05-10T06:31:44;14.20;99.90
28520;DHT22;15732;48.534;20.382;2023-05-10T06:34:11;14.20;99.90
28520;DHT22;15732;48.534;20.382;2023-05-10T06:36:38;14.30;99.90
28520;DHT22;15732;48.534;20.382;2023-05-10T06:39:06;14.40;99.90
28520;DHT22;15732;48.534;20.382;2023-05-10T06:41:33;14.50;99.90
28520;DHT22;15732;48.534;20.382;2023-05-10T06:44:01;14.50;99.90
28520;DHT22;15732;48.534;20.382;2023-05-10T06:46:28;14.60;99.90
28520;DHT22;15732;48.534;20.382;2023-05-10T06:48:55;14.70;99.90
28520;DHT22;15732;48.534;20.382;2023-05-10T06:51:22;14.80;99.90
28520;DHT22;15732;48.534;20.382;2023-05-10T06:53:49;14.90;99.90
28520;DHT22;15732;48.534;20.382;2023-05-10T06:56:17;15.00;99.90
28520;DHT22;15732;48.534;20.382;2023-05-10T06:58:44;15.10;99.90
28520;DHT22;15732;48.534;20.382;2023-05-10T07:01:12;15.10;99.90
28520;DHT22;15732;48.534;20.382;2023-05-10T07:03:39;15.20;99.90
28520;DHT22;15732;48.534;20.382;2023-05-10T07:06:06;15.30;99.90
28520;DHT22;15732;48.534;20.382;2023-05-10T07:08:34;15.30;99.90
28520;DHT22;15732;48.534;20.382;2023-05-10T07:11:03;15.50;99.90
28520;DHT22;15732;48.534;20.382;2023-05-10T07:13:32;15.50;99.90
28520;DHT22;15732;48.534;20.382;2023-05-10T07:16:00;15.60;99.90
28520;DHT22;15732;48.534;20.382;2023-05-10T07:18:27;15.70;99.90
28520;DHT22;15732;48.534;20.382;2023-05-10T07:20:54;15.70;99.90
28520;DHT22;15732;48.534;20.382;2023-05-10T07:23:21;15.80;99.90
28520;DHT22;15732;48.534;20.382;2023-05-10T07:25:49;15.90;99.90
28520;DHT22;15732;48.534;20.382;2023-05-10T07:28:18;15.90;99.90
28520;DHT22;15732;48.534;20.382;2023-05-10T07:30:45;16.00;99.90
28520;DHT22;15732;48.534;20.382;2023-05-10T07:33:14;16.00;99.90
28520;DHT22;15732;48.534;20.382;2023-05-10T07:35:40;16.10;99.90
28520;DHT22;15732;48.534;20.382;2023-05-10T07:38:07;16.20;99.90
28520;DHT22;15732;48.534;20.382;2023-05-10T07:40:35;16.40;99.90
28520;DHT22;15732;48.534;20.382;2023-05-10T07:43:02;16.40;99.90
28520;DHT22;15732;48.534;20.382;2023-05-10T07:45:29;16.40;99.90
28520;DHT22;15732;48.534;20.382;2023-05-10T07:47:56;16.40;99.90
28520;DHT22;15732;48.534;20.382;2023-05-10T07:50:24;16.40;99.90
28520;DHT22;15732;48.534;20.382;2023-05-10T07:52:51;16.50;99.90
28520;DHT22;15732;48.534;20.382;2023-05-10T07:55:19;16.60;99.90
28520;DHT22;15732;48.534;20.382;2023-05-10T07:57:50;16.50;99.90
28520;DHT22;15732;48.534;20.382;2023-05-10T08:00:19;16.60;99.90
28520;DHT22;15732;48.534;20.382;2023-05-10T08:02:47;16.60;99.90
28520;DHT22;15732;48.534;20.382;2023-05-10T08:05:14;16.70;99.90
28520;DHT22;15732;48.534;20.382;2023-05-10T08:07:41;16.80;99.90
28520;DHT22;15732;48.534;20.382;2023-05-10T08:10:10;16.90;99.90
28520;DHT22;15732;48.534;20.382;2023-05-10T08:12:45;16.90;99.90
28520;DHT22;15732;48.534;20.382;2023-05-10T08:15:12;16.90;99.90
28520;DHT22;15732;48.534;20.382;2023-05-10T08:17:39;16.80;99.90
28520;DHT22;15732;48.534;20.382;2023-05-10T08:20:08;16.80;99.90
28520;DHT22;15732;48.534;20.382;2023-05-10T08:22:35;16.80;99.90
28520;DHT22;15732;48.534;20.382;2023-05-10T08:25:03;16.70;99.90
28520;DHT22;15732;48.534;20.382;2023-05-10T08:27:30;16.70;99.90
28520;DHT22;15732;48.534;20.382;2023-05-10T08:29:58;16.60;99.90
28520;DHT22;15732;48.534;20.382;2023-05-10T08:32:25;16.70;99.90
28520;DHT22;15732;48.534;20.382;2023-05-10T08:34:52;16.60;99.90
28520;DHT22;15732;48.534;20.382;2023-05-10T08:37:19;16.50;99.90
28520;DHT22;15732;48.534;20.382;2023-05-10T08:39:47;16.50;99.90
28520;DHT22;15732;48.534;20.382;2023-05-10T08:42:19;16.50;99.90
28520;DHT22;15732;48.534;20.382;2023-05-10T08:44:48;16.40;99.90
28520;DHT22;15732;48.534;20.382;2023-05-10T08:47:17;16.40;99.90
28520;DHT22;15732;48.534;20.382;2023-05-10T08:49:47;16.40;99.90
28520;DHT22;15732;48.534;20.382;2023-05-10T08:52:20;16.40;99.90
28520;DHT22;15732;48.534;20.382;2023-05-10T08:54:48;16.40;99.90
28520;DHT22;15732;48.534;20.382;2023-05-10T08:57:16;16.40;99.90
28520;DHT22;15732;48.534;20.382;2023-05-10T08:59:43;16.40;99.90
28520;DHT22;15732;48.534;20.382;2023-05-10T09:02:14;16.40;99.90
28520;DHT22;15732;48.534;20.382;2023-05-10T09:04:41;16.40;99.90
28520;DHT22;15732;48.534;20.382;2023-05-10T09:07:09;16.40;99.90
28520;DHT22;15732;48.534;20.382;2023-05-10T09:09:37;16.40;99.90
28520;DHT22;15732;48.534;20.382;2023-05-10T09:12:05;16.30;99.90
28520;DHT22;15732;48.534;20.382;2023-05-10T09:14:35;16.20;99.90
28520;DHT22;15732;48.534;20.382;2023-05-10T09:17:03;16.30;99.90
28520;DHT22;15732;48.534;20.382;2023-05-10T09:19:31;16.30;99.90
28520;DHT22;15732;48.534;20.382;2023-05-10T09:21:58;16.40;99.90
28520;DHT22;15732;48.534;20.382;2023-05-10T09:24:26;16.50;99.90
28520;DHT22;15732;48.534;20.382;2023-05-10T09:26:53;16.70;99.90
28520;DHT22;15732;48.534;20.382;2023-05-10T09:29:23;16.80;99.90
28520;DHT22;15732;48.534;20.382;2023-05-10T09:31:52;16.90;99.90
28520;DHT22;15732;48.534;20.382;2023-05-10T09:34:30;17.10;99.90
28520;DHT22;15732;48.534;20.382;2023-05-10T09:36:59;17.20;99.90
28520;DHT22;15732;48.534;20.382;2023-05-10T09:39:54;17.20;99.90
28520;DHT22;15732;48.534;20.382;2023-05-10T09:42:23;17.10;99.90
28520;DHT22;15732;48.534;20.382;2023-05-10T09:44:50;17.10;99.90
28520;DHT22;15732;48.534;20.382;2023-05-10T09:47:18;17.10;99.90
28520;DHT22;15732;48.534;20.382;2023-05-10T09:49:49;17.20;99.90
28520;DHT22;15732;48.534;20.382;2023-05-10T09:52:17;17.20;99.90
28520;DHT22;15732;48.534;20.382;2023-05-10T09:54:54;17.10;99.90
28520;DHT22;15732;48.534;20.382;2023-05-10T09:57:23;17.10;99.90
28520;DHT22;15732;48.534;20.382;2023-05-10T09:59:51;17.00;99.90
28520;DHT22;15732;48.534;20.382;2023-05-10T10:02:21;17.00;99.90
28520;DHT22;15732;48.534;20.382;2023-05-10T10:04:49;17.10;99.90
28520;DHT22;15732;48.534;20.382;2023-05-10T10:07:23;17.20;99.90
28520;DHT22;15732;48.534;20.382;2023-05-10T10:09:51;17.20;99.90
28520;DHT22;15732;48.534;20.382;2023-05-10T10:12:20;17.30;99.90
28520;DHT22;15732;48.534;20.382;2023-05-10T10:14:47;17.30;99.90
28520;DHT22;15732;48.534;20.382;2023-05-10T10:17:16;17.30;99.90
28520;DHT22;15732;48.534;20.382;2023-05-10T10:19:43;17.30;99.90
28520;DHT22;15732;48.534;20.382;2023-05-10T10:22:14;17.40;99.90
28520;DHT22;15732;48.534;20.382;2023-05-10T10:24:41;17.40;99.90
28520;DHT22;15732;48.534;20.382;2023-05-10T10:27:32;17.40;99.90
28520;DHT22;15732;48.534;20.382;2023-05-10T10:35:22;17.50;99.90
28520;DHT22;15732;48.534;20.382;2023-05-10T10:37:51;17.50;99.90
28520;DHT22;15732;48.534;20.382;2023-05-10T10:40:31;17.40;99.90
28520;DHT22;15732;48.534;20.382;2023-05-10T10:43:27;17.40;99.90
28520;DHT22;15732;48.534;20.382;2023-05-10T10:46:13;17.30;99.90
28520;DHT22;15732;48.534;20.382;2023-05-10T10:49:09;17.30;99.90
28520;DHT22;15732;48.534;20.382;2023-05-10T10:52:04;17.20;99.90
28520;DHT22;15732;48.534;20.382;2023-05-10T10:54:29;17.20;99.90
28520;DHT22;15732;48.534;20.382;2023-05-10T10:57:13;17.30;99.90
28520;DHT22;15732;48.534;20.382;2023-05-10T10:59:43;17.30;99.90
28520;DHT22;15732;48.534;20.382;2023-05-10T11:05:39;17.30;99.90
28520;DHT22;15732;48.534;20.382;2023-05-10T11:10:36;17.40;99.90
28520;DHT22;15732;48.534;20.382;2023-05-10T11:13:08;17.30;99.90
28520;DHT22;15732;48.534;20.382;2023-05-10T11:15:36;17.30;99.90
28520;DHT22;15732;48.534;20.382;2023-05-10T11:18:23;17.40;99.90
28520;DHT22;15732;48.534;20.382;2023-05-10T11:20:59;17.40;99.90
28520;DHT22;15732;48.534;20.382;2023-05-10T11:23:34;17.50;99.90
28520;DHT22;15732;48.534;20.382;2023-05-10T11:26:14;17.50;99.90
28520;DHT22;15732;48.534;20.382;2023-05-10T11:28:44;17.60;99.90
28520;DHT22;15732;48.534;20.382;2023-05-10T11:31:29;17.60;99.90
28520;DHT22;15732;48.534;20.382;2023-05-10T11:33:58;17.60;99.90
28520;DHT22;15732;48.534;20.382;2023-05-10T11:36:27;17.70;99.90
28520;DHT22;15732;48.534;20.382;2023-05-10T11:38:57;17.70;99.90
28520;DHT22;15732;48.534;20.382;2023-05-10T11:41:29;17.70;99.90
28520;DHT22;15732;48.534;20.382;2023-05-10T11:44:00;17.80;99.90
28520;DHT22;15732;48.534;20.382;2023-05-10T11:46:28;17.80;99.90
28520;DHT22;15732;48.534;20.382;2023-05-10T11:49:15;17.80;99.90
28520;DHT22;15732;48.534;20.382;2023-05-10T11:51:42;17.80;99.90
28520;DHT22;15732;48.534;20.382;2023-05-10T11:54:11;17.80;99.90
28520;DHT22;15732;48.534;20.382;2023-05-10T11:56:39;17.70;99.90
28520;DHT22;15732;48.534;20.382;2023-05-10T11:59:06;17.70;99.90
28520;DHT22;15732;48.534;20.382;2023-05-10T12:01:34;17.70;99.90
28520;DHT22;15732;48.534;20.382;2023-05-10T12:04:01;17.70;99.90
28520;DHT22;15732;48.534;20.382;2023-05-10T12:06:30;17.80;99.90
28520;DHT22;15732;48.534;20.382;2023-05-10T12:08:58;17.80;99.90
28520;DHT22;15732;48.534;20.382;2023-05-10T12:11:27;17.90;99.90
28520;DHT22;15732;48.534;20.382;2023-05-10T12:13:54;17.80;99.90
28520;DHT22;15732;48.534;20.382;2023-05-10T12:16:25;17.80;99.90
28520;DHT22;15732;48.534;20.382;2023-05-10T12:19:00;17.70;99.90
28520;DHT22;15732;48.534;20.382;2023-05-10T12:21:28;17.70;99.90
28520;DHT22;15732;48.534;20.382;2023-05-10T12:24:02;17.60;99.90
28520;DHT22;15732;48.534;20.382;2023-05-10T12:26:29;17.60;99.90
28520;DHT22;15732;48.534;20.382;2023-05-10T12:29:13;17.50;99.90
28520;DHT22;15732;48.534;20.382;2023-05-10T12:32:16;17.40;99.90
28520;DHT22;15732;48.534;20.382;2023-05-10T12:34:46;17.40;99.90
28520;DHT22;15732;48.534;20.382;2023-05-10T12:37:14;17.40;99.90
28520;DHT22;15732;48.534;20.382;2023-05-10T12:39:43;17.40;99.90
28520;DHT22;15732;48.534;20.382;2023-05-10T12:42:10;17.40;99.90
28520;DHT22;15732;48.534;20.382;2023-05-10T12:44:36;17.30;99.90
28520;DHT22;15732;48.534;20.382;2023-05-10T12:47:07;17.30;99.90
28520;DHT22;15732;48.534;20.382;2023-05-10T12:49:34;17.30;99.90
28520;DHT22;15732;48.534;20.382;2023-05-10T12:52:02;17.40;99.90
28520;DHT22;15732;48.534;20.382;2023-05-10T12:54:29;17.40;99.90
28520;DHT22;15732;48.534;20.382;2023-05-10T12:57:00;17.40;99.90
28520;DHT22;15732;48.534;20.382;2023-05-10T12:59:28;17.30;99.90
28520;DHT22;15732;48.534;20.382;2023-05-10T13:01:56;17.30;99.90
28520;DHT22;15732;48.534;20.382;2023-05-10T13:04:23;17.20;99.90
28520;DHT22;15732;48.534;20.382;2023-05-10T13:06:54;17.20;99.90
28520;DHT22;15732;48.534;20.382;2023-05-10T13:09:26;17.20;99.90
28520;DHT22;15732;48.534;20.382;2023-05-10T13:11:54;17.30;99.90
28520;DHT22;15732;48.534;20.382;2023-05-10T13:14:20;17.30;99.90
28520;DHT22;15732;48.534;20.382;2023-05-10T13:16:48;17.30;99.90
28520;DHT22;15732;48.534;20.382;2023-05-10T13:19:19;17.40;99.90
28520;DHT22;15732;48.534;20.382;2023-05-10T13:21:46;17.40;99.90
28520;DHT22;15732;48.534;20.382;2023-05-10T13:24:14;17.40;99.90
28520;DHT22;15732;48.534;20.382;2023-05-10T13:26:41;17.40;99.90
28520;DHT22;15732;48.534;20.382;2023-05-10T13:29:09;17.40;99.90
28520;DHT22;15732;48.534;20.382;2023-05-10T13:31:36;17.40;99.90
28520;DHT22;15732;48.534;20.382;2023-05-10T13:34:05;17.40;99.90
28520;DHT22;15732;48.534;20.382;2023-05-10T13:36:32;17.40;99.90
28520;DHT22;15732;48.534;20.382;2023-05-10T13:38:59;17.30;99.90
28520;DHT22;15732;48.534;20.382;2023-05-10T13:41:28;17.30;99.90
28520;DHT22;15732;48.534;20.382;2023-05-10T13:43:56;17.30;99.90
28520;DHT22;15732;48.534;20.382;2023-05-10T13:46:23;17.30;99.90
28520;DHT22;15732;48.534;20.382;2023-05-10T13:48:50;17.30;99.90
28520;DHT22;15732;48.534;20.382;2023-05-10T13:51:18;17.30;99.90
28520;DHT22;15732;48.534;20.382;2023-05-10T13:53:49;17.30;99.90
28520;DHT22;15732;48.534;20.382;2023-05-10T13:56:16;17.40;99.90
28520;DHT22;15732;48.534;20.382;2023-05-10T13:58:44;17.30;99.90
28520;DHT22;15732;48.534;20.382;2023-05-10T14:01:11;17.30;99.90
28520;DHT22;15732;48.534;20.382;2023-05-10T14:03:38;17.30;99.90
28520;DHT22;15732;48.534;20.382;2023-05-10T14:06:06;17.30;99.90
28520;DHT22;15732;48.534;20.382;2023-05-10T14:08:34;17.30;99.90
28520;DHT22;15732;48.534;20.382;2023-05-10T14:11:01;17.40;99.90
28520;DHT22;15732;48.534;20.382;2023-05-10T14:13:28;17.40;99.90
28520;DHT22;15732;48.534;20.382;2023-05-10T14:15:56;17.40;99.90
28520;DHT22;15732;48.534;20.382;2023-05-10T14:18:29;17.40;99.90
28520;DHT22;15732;48.534;20.382;2023-05-10T14:20:56;17.30;99.90
28520;DHT22;15732;48.534;20.382;2023-05-10T14:23:27;17.30;99.90
28520;DHT22;15732;48.534;20.382;2023-05-10T14:25:55;17.40;99.90
28520;DHT22;15732;48.534;20.382;2023-05-10T14:28:23;17.40;99.90
28520;DHT22;15732;48.534;20.382;2023-05-10T14:30:51;17.40;99.90
28520;DHT22;15732;48.534;20.382;2023-05-10T14:33:18;17.40;99.90
28520;DHT22;15732;48.534;20.382;2023-05-10T14:35:46;17.40;99.90
28520;DHT22;15732;48.534;20.382;2023-05-10T14:38:13;17.40;99.90
28520;DHT22;15732;48.534;20.382;2023-05-10T14:40:40;17.40;99.90
28520;DHT22;15732;48.534;20.382;2023-05-10T14:43:07;17.40;99.90
28520;DHT22;15732;48.534;20.382;2023-05-10T14:45:34;17.40;99.90
28520;DHT22;15732;48.534;20.382;2023-05-10T14:48:02;17.40;99.90
28520;DHT22;15732;48.534;20.382;2023-05-10T14:50:31;17.40;99.90
28520;DHT22;15732;48.534;20.382;2023-05-10T14:52:58;17.30;99.90
28520;DHT22;15732;48.534;20.382;2023-05-10T14:55:32;17.30;99.90
28520;DHT22;15732;48.534;20.382;2023-05-10T14:58:02;17.30;99.90
28520;DHT22;15732;48.534;20.382;2023-05-10T15:00:29;17.30;99.90
28520;DHT22;15732;48.534;20.382;2023-05-10T15:02:56;17.30;99.90
28520;DHT22;15732;48.534;20.382;2023-05-10T15:05:23;17.30;99.90
28520;DHT22;15732;48.534;20.382;2023-05-10T15:07:51;17.30;99.90
28520;DHT22;15732;48.534;20.382;2023-05-10T15:10:18;17.30;99.90
28520;DHT22;15732;48.534;20.382;2023-05-10T15:12:46;17.30;99.90
28520;DHT22;15732;48.534;20.382;2023-05-10T15:15:17;17.30;99.90
28520;DHT22;15732;48.534;20.382;2023-05-10T15:17:44;17.30;99.90
28520;DHT22;15732;48.534;20.382;2023-05-10T15:20:11;17.30;99.90
28520;DHT22;15732;48.534;20.382;2023-05-10T15:22:39;17.30;99.90
28520;DHT22;15732;48.534;20.382;2023-05-10T15:25:08;17.30;99.90
28520;DHT22;15732;48.534;20.382;2023-05-10T15:27:36;17.30;99.90
28520;DHT22;15732;48.534;20.382;2023-05-10T15:30:04;17.30;99.90
28520;DHT22;15732;48.534;20.382;2023-05-10T15:32:32;17.30;99.90
28520;DHT22;15732;48.534;20.382;2023-05-10T15:34:59;17.30;99.90
28520;DHT22;15732;48.534;20.382;2023-05-10T15:37:26;17.40;99.90
28520;DHT22;15732;48.534;20.382;2023-05-10T15:39:54;17.40;99.90
28520;DHT22;15732;48.534;20.382;2023-05-10T15:42:27;17.40;99.90
28520;DHT22;15732;48.534;20.382;2023-05-10T15:44:55;17.40;99.90
28520;DHT22;15732;48.534;20.382;2023-05-10T15:47:22;17.40;99.90
28520;DHT22;15732;48.534;20.382;2023-05-10T15:49:49;17.40;99.90
28520;DHT22;15732;48.534;20.382;2023-05-10T15:52:16;17.40;99.90
28520;DHT22;15732;48.534;20.382;2023-05-10T15:54:44;17.40;99.90